メインページ
METAR-TAF:

METAR-TAF

空港 :

Quesnel, ブリティッシュコロンビア州, カナダ

緯度: 53-02N, 経度: 122-31W, 海抜: 545m

現時点の気象観測

当レポートは1時間2分前の01:00(UTC)に作成
無風
気温 14°C
湿度 72%
気圧 1021 hPa
視程: 14.5km
晴天

METAR: CYQZ 250100Z AUTO 00000KT 9SM CLR 14/09 A3016 RMK SLP228 DENSITY ALT 1800FT

時間: 19:02 (02:02 UTC)

予報

当レポートは1時間24分前の00:38(UTC)に作成
予報は25日の 01時(UTC)から 25日の 06時(UTC)まで有効
変向風 3kt
視程: 10km
高度8000ftの雲は散在している

TAF: CYQZ 250038Z 2501/2506 VRB03KT P6SM SCT080 RMK FCST BASED ON AUTO OBS. NXT FCST WILL BE ISSUED AT 251145Z

4,000以上の空港の気象観測と天気予報(METAR報とTAF報)

利用可能な観測所は地図上に黄色い丸と赤い丸で示す。

丸の上にカーソルを重ねると観測所名を参照できる。

次にクリックすると気象観測と天気予報を参照できる。

マップの切り替え:黒色「×」印の緑ボタンをクリックして拡大、「-」印の緑ボタンをクリックして縮小、緑色の三角印をクリックして隣りの地図に切り替え


METAR-TAF: